Terminal Aerodrome Forecast
Issued by NWS Green Bay, WI

Home | Current Version | Previous Version | Text Only | Print | Product List | Glossary Off
Versions: 1 2 3 4 5 6 7 8 9 10 11 12 13 14 15 16 17 18 19 20 21 22 23 24 25 26 27 28 29 30 31 32

000
FTUS43 KGRB 180135 AAB
TAFGRB
TAF AMD
KGRB 180135Z 1802/1824 33005KT 1 1/2SM BR OVC003
     FM180300 32005KT 3SM BR OVC005
     FM180500 27004KT 5SM BR SCT007 BKN015
     FM180700 26005KT 3SM BR SCT015 OVC025
     FM181100 23008KT 2SM BR OVC006
     FM181800 22010KT P6SM SCT010=

USA.gov is the U.S. government's official web portal to all federal, state and local government web resources and services.